Time;durP1;ratioP1;P1;durP2;ratioP2;P2;SDS_P1;SDS_P2;PMS_P1;PMS_P2;Temp;Humidity;BMP_temperature;BMP_pressure;BME280_temperature;BME280_humidity;BME280_pressure;Samples;Min_cycle;Max_cycle;Signal;HPM_P1;HPM_P2
2021/07/12 06:06:22;;;;;;;10.13;5.72;;;;;;;23.71;66.47;98125.38;1859928;76;22734;-60
2021/07/12 06:08:50;;;;;;;9.98;6.03;;;;;;;23.79;65.67;98126.23;1795492;79;20860;-63
2021/07/12 06:11:16;;;;;;;6.17;5.30;;;;;;;23.92;64.74;98123.46;1795403;80;21109;-60
2021/07/12 06:13:43;;;;;;;8.90;6.15;;;;;;;24.08;64.08;98133.63;1795319;80;20899;-57
2021/07/12 06:16:11;;;;;;;8.55;5.42;;;;;;;24.23;63.36;98123.05;1803370;77;20876;-62
2021/07/12 06:18:38;;;;;;;10.25;5.62;;;;;;;24.40;62.88;98129.24;1828438;78;20954;-62
2021/07/12 06:21:04;;;;;;;6.37;5.62;;;;;;;24.56;62.17;98118.63;1827856;78;21018;-64
2021/07/12 06:23:32;;;;;;;6.05;5.45;;;;;;;24.73;61.62;98124.84;1827834;78;21113;-61
2021/07/12 06:25:59;;;;;;;11.50;5.92;;;;;;;24.85;61.04;98118.49;1827652;78;20899;-61
2021/07/12 06:28:25;;;;;;;7.40;5.65;;;;;;;24.97;60.49;98117.40;1827794;78;21343;-62
2021/07/12 06:30:54;;;;;;;9.20;5.50;;;;;;;25.07;59.90;98118.06;1828010;78;21474;-64
2021/07/12 06:33:21;;;;;;;7.65;5.90;;;;;;;25.19;60.53;98115.58;1827763;78;21434;-63
2021/07/12 06:35:49;;;;;;;8.65;5.50;;;;;;;25.29;60.35;98113.49;1826416;78;21115;-59
2021/07/12 06:38:16;;;;;;;7.83;5.40;;;;;;;25.37;59.85;98119.98;1826298;78;20996;-61
2021/07/12 06:40:43;;;;;;;9.53;5.47;;;;;;;25.45;59.81;98118.11;1826239;78;21009;-64
2021/07/12 06:43:09;;;;;;;7.22;5.37;;;;;;;25.53;59.28;98121.86;1825588;77;21427;-64
2021/07/12 06:45:38;;;;;;;9.28;5.53;;;;;;;25.68;57.84;98119.38;1826263;78;21132;-62
2021/07/12 06:48:06;;;;;;;12.37;5.80;;;;;;;25.68;57.84;98119.38;1826609;78;21699;-62
2021/07/12 06:50:34;;;;;;;8.20;5.87;;;;;;;25.75;57.25;98115.30;1805629;78;21462;-62
2021/07/12 06:53:01;;;;;;;8.33;5.78;;;;;;;25.82;56.13;98118.64;1827869;78;20899;-64
2021/07/12 06:55:28;;;;;;;7.25;5.83;;;;;;;25.98;56.49;98121.06;1822393;77;21415;-59
2021/07/12 06:57:56;;;;;;;6.47;5.60;;;;;;;25.98;56.49;98121.06;1825622;77;21442;-62
2021/07/12 07:00:23;;;;;;;9.13;5.55;;;;;;;26.06;56.35;98114.40;1815710;78;21071;-61
2021/07/12 07:03:02;;;;;;;6.90;5.70;;;;;;;26.14;56.15;98114.66;1822251;77;21400;-65
2021/07/12 07:05:30;;;;;;;7.08;6.15;;;;;;;26.21;55.66;98117.41;1827263;77;20909;-64
2021/07/12 07:08:02;;;;;;;9.63;6.72;;;;;;;26.37;55.40;98113.70;1762597;79;21427;-59
2021/07/12 07:10:30;;;;;;;7.58;5.42;;;;;;;26.37;55.40;98113.70;1769950;81;20895;-59
2021/07/12 07:12:57;;;;;;;7.37;6.33;;;;;;;26.44;55.70;98109.01;1772666;81;21401;-59
2021/07/12 07:15:25;;;;;;;8.45;6.37;;;;;;;26.59;54.55;98118.02;1772519;81;21414;-63
2021/07/12 07:17:52;;;;;;;7.78;6.12;;;;;;;26.59;54.55;98118.02;1774772;80;20967;-61
2021/07/12 07:20:20;;;;;;;9.08;6.53;;;;;;;26.65;54.79;98121.95;1774527;80;21019;-63
2021/07/12 07:22:50;;;;;;;12.50;6.53;;;;;;;26.72;53.88;98115.67;1772411;81;21075;-60
2021/07/12 07:25:17;;;;;;;8.18;6.12;;;;;;;26.78;53.18;98115.52;1768448;81;21292;-62
2021/07/12 07:27:45;;;;;;;7.10;6.28;;;;;;;26.83;52.55;98110.39;1807705;79;21042;-60
2021/07/12 07:30:14;;;;;;;8.58;5.72;;;;;;;26.90;52.38;98114.50;1807666;79;21512;-59
2021/07/12 07:32:41;;;;;;;8.15;6.25;;;;;;;26.98;52.16;98111.95;1808076;79;20982;-65
2021/07/12 07:35:09;;;;;;;9.18;6.50;;;;;;;27.04;52.20;98111.73;1805702;77;21077;-61
2021/07/12 07:37:38;;;;;;;7.95;5.53;;;;;;;27.09;52.18;98105.84;1783128;79;21526;-63
2021/07/12 07:40:08;;;;;;;7.08;5.40;;;;;;;27.14;51.69;98106.81;1782456;80;21086;-62
2021/07/12 07:42:34;;;;;;;6.78;5.33;;;;;;;27.20;51.50;98105.04;1783112;80;20896;-60
2021/07/12 07:45:01;;;;;;;6.50;5.80;;;;;;;27.27;51.13;98100.89;1782411;79;21148;-61
2021/07/12 07:47:28;;;;;;;8.00;5.72;;;;;;;27.34;51.36;98103.04;1783047;80;20927;-62
2021/07/12 07:49:55;;;;;;;11.22;6.08;;;;;;;27.41;51.61;98100.30;1793551;78;21735;-60
2021/07/12 07:52:24;;;;;;;5.90;5.22;;;;;;;27.50;51.43;98105.36;1809348;77;20928;-61
2021/07/12 07:54:51;;;;;;;7.78;5.60;;;;;;;27.58;49.56;98108.30;1799915;77;20912;-64
2021/07/12 07:57:18;;;;;;;7.05;5.33;;;;;;;27.62;47.76;98102.17;1810553;78;20881;-60
2021/07/12 07:59:46;;;;;;;12.03;5.50;;;;;;;27.66;47.23;98104.31;1815903;78;20987;-63
2021/07/12 08:02:13;;;;;;;4.90;4.37;;;;;;;27.71;46.72;98106.66;1816062;78;21885;-60
2021/07/12 08:04:43;;;;;;;6.35;4.80;;;;;;;27.78;46.11;98113.50;1831334;78;20904;-64
2021/07/12 08:07:14;;;;;;;5.92;4.53;;;;;;;27.85;46.15;98107.95;1809285;77;21014;-62
2021/07/12 08:09:41;;;;;;;5.90;5.03;;;;;;;27.92;46.40;98111.26;1819554;77;20912;-60
2021/07/12 08:12:10;;;;;;;5.72;4.87;;;;;;;27.98;46.86;98103.55;1828700;77;20927;-62
2021/07/12 08:14:38;;;;;;;6.33;4.72;;;;;;;28.05;46.63;98104.91;1783809;78;20963;-62
2021/07/12 08:17:06;;;;;;;6.85;5.10;;;;;;;28.10;45.43;98104.49;1818066;77;21980;-59
2021/07/12 08:19:33;;;;;;;5.60;4.80;;;;;;;28.17;45.12;98103.07;1825975;77;21047;-61
2021/07/12 08:22:02;;;;;;;6.45;4.45;;;;;;;28.20;44.02;98099.52;1816866;77;20887;-60
2021/07/12 08:24:29;;;;;;;7.00;4.58;;;;;;;28.25;43.58;98099.09;1811212;78;21027;-61
2021/07/12 08:26:56;;;;;;;6.97;4.60;;;;;;;28.28;44.07;98098.89;1810452;78;21633;-61
2021/07/12 08:29:23;;;;;;;7.80;4.37;;;;;;;28.34;44.57;98092.53;1814569;78;20856;-63
2021/07/12 08:31:50;;;;;;;7.97;4.67;;;;;;;28.41;44.29;98095.23;1816552;77;20868;-61
2021/07/12 08:34:17;;;;;;;7.55;4.50;;;;;;;28.47;43.98;98092.84;1812801;78;21525;-60
2021/07/12 08:36:44;;;;;;;6.95;4.28;;;;;;;28.51;43.87;98092.80;1815865;79;21015;-62
2021/07/12 08:39:11;;;;;;;7.62;4.25;;;;;;;28.57;43.68;98089.81;1815183;78;21112;-62
2021/07/12 08:41:38;;;;;;;6.92;4.25;;;;;;;28.64;43.93;98091.92;1813601;79;21114;-60
2021/07/12 08:44:06;;;;;;;5.03;4.33;;;;;;;28.72;43.47;98093.44;1813272;78;21545;-61
2021/07/12 08:46:34;;;;;;;8.43;4.85;;;;;;;28.77;44.03;98092.22;1811285;78;21058;-59
2021/07/12 08:49:00;;;;;;;7.17;4.67;;;;;;;28.84;43.42;98094.31;1813736;78;20892;-60
2021/07/12 08:51:28;;;;;;;6.37;4.17;;;;;;;28.94;42.71;98092.66;1814109;78;21104;-62
2021/07/12 08:53:55;;;;;;;7.67;4.80;;;;;;;29.03;43.86;98089.61;1813521;79;20964;-59
2021/07/12 08:56:24;;;;;;;5.08;4.28;;;;;;;29.09;44.48;98090.72;1814389;78;20896;-63
2021/07/12 08:58:54;;;;;;;10.45;4.30;;;;;;;29.16;44.20;98088.47;1816277;78;21400;-59
2021/07/12 09:01:22;;;;;;;5.83;4.37;;;;;;;29.24;42.70;98084.48;1756169;80;21308;-60
2021/07/12 09:03:53;;;;;;;6.40;4.25;;;;;;;29.31;43.23;98079.48;1777018;80;21039;-62
2021/07/12 09:06:23;;;;;;;8.28;4.50;;;;;;;29.37;43.60;98086.13;1777025;80;20911;-62
2021/07/12 09:08:56;;;;;;;10.95;4.15;;;;;;;29.44;44.00;98090.17;1776211;80;21414;-62
2021/07/12 09:11:34;;;;;;;6.67;4.40;;;;;;;29.50;43.37;98093.44;1776440;80;21062;-61
2021/07/12 09:14:11;;;;;;;6.80;4.45;;;;;;;29.58;43.40;98092.77;1777180;80;20824;-60
2021/07/12 09:16:51;;;;;;;6.58;4.45;;;;;;;29.66;43.43;98095.02;1776449;80;20962;-59
2021/07/12 09:19:39;;;;;;;8.78;4.22;;;;;;;29.74;42.82;98091.57;1776192;80;20876;-63
2021/07/12 09:22:12;;;;;;;6.22;4.42;;;;;;;29.77;42.12;98095.68;1768183;81;20913;-60
2021/07/12 09:24:56;;;;;;;7.10;4.25;;;;;;;29.86;42.46;98095.78;1768399;81;20940;-61
2021/07/12 09:27:27;;;;;;;4.85;3.70;;;;;;;29.94;42.01;98093.09;1768446;81;20987;-62
2021/07/12 09:30:00;;;;;;;6.45;3.92;;;;;;;29.99;41.86;98095.39;1767903;81;21118;-62
2021/07/12 09:32:30;;;;;;;6.20;4.20;;;;;;;30.07;41.86;98091.34;1767796;81;20921;-62
2021/07/12 09:35:06;;;;;;;6.83;3.90;;;;;;;30.14;42.20;98093.41;1768568;81;20886;-60
2021/07/12 09:37:34;;;;;;;4.78;3.52;;;;;;;30.23;40.54;98094.26;1768415;81;20913;-61
2021/07/12 09:40:04;;;;;;;6.08;3.90;;;;;;;30.25;38.98;98091.27;1768695;81;20866;-62
2021/07/12 09:42:31;;;;;;;6.17;3.87;;;;;;;30.24;39.40;98092.45;1768569;81;21092;-63
2021/07/12 09:45:01;;;;;;;6.95;3.70;;;;;;;30.28;39.36;98093.20;1767694;81;20972;-62
2021/07/12 09:47:30;;;;;;;5.05;3.62;;;;;;;30.34;40.00;98091.55;1763678;81;20928;-63
2021/07/12 09:50:20;;;;;;;5.50;3.70;;;;;;;30.42;40.25;98090.84;1753137;81;21026;-62
2021/07/12 09:52:52;;;;;;;5.67;3.75;;;;;;;30.48;39.63;98093.30;1753256;81;21048;-60
2021/07/12 09:55:41;;;;;;;6.22;3.67;;;;;;;30.51;39.91;98088.32;1752019;81;21507;-58
2021/07/12 09:58:18;;;;;;;8.33;3.98;;;;;;;30.59;40.22;98088.40;1750624;81;21034;-63
2021/07/12 10:00:54;;;;;;;6.15;3.83;;;;;;;30.67;39.85;98090.42;1753949;81;21471;-62
2021/07/12 10:03:22;;;;;;;8.35;4.00;;;;;;;30.74;40.15;98085.56;1688845;84;20915;-63
2021/07/12 10:05:50;;;;;;;5.40;3.40;;;;;;;30.83;39.79;98094.09;1688837;85;21628;-61
2021/07/12 10:08:17;;;;;;;5.05;3.42;;;;;;;30.88;37.60;98090.05;1717639;83;21099;-62
2021/07/12 10:10:45;;;;;;;8.03;3.50;;;;;;;30.89;37.23;98092.44;1717459;83;20952;-59
2021/07/12 10:13:14;;;;;;;5.00;3.72;;;;;;;30.90;37.52;98085.70;1720402;83;20968;-69
2021/07/12 10:15:40;;;;;;;5.12;3.50;;;;;;;30.92;38.31;98086.08;1688820;85;21008;-58
2021/07/12 10:18:07;;;;;;;6.37;3.15;;;;;;;30.96;37.93;98086.78;1717675;83;20932;-63
2021/07/12 10:20:35;;;;;;;5.65;3.58;;;;;;;30.99;37.88;98088.72;1728015;80;21179;-62
2021/07/12 10:23:04;;;;;;;5.87;3.17;;;;;;;31.01;37.86;98086.30;1760436;80;20984;-60
2021/07/12 10:25:32;;;;;;;7.10;3.50;;;;;;;31.05;37.43;98088.39;1730470;83;20909;-63
2021/07/12 10:28:05;;;;;;;5.80;3.40;;;;;;;31.08;36.61;98086.17;1730261;83;21077;-66
2021/07/12 10:30:42;;;;;;;4.37;3.15;;;;;;;31.14;36.92;98077.39;1731308;83;20960;-63
2021/07/12 10:33:11;;;;;;;6.33;3.67;;;;;;;31.22;36.88;98078.80;1731107;83;21372;-62
2021/07/12 10:35:53;;;;;;;5.50;3.50;;;;;;;31.22;37.17;98075.44;1731076;83;21476;-61
2021/07/12 10:38:46;;;;;;;6.92;3.75;;;;;;;31.23;36.82;98076.22;1731222;83;21392;-61
2021/07/12 10:41:22;;;;;;;4.53;3.60;;;;;;;31.28;36.86;98075.10;1730979;83;20988;-60
2021/07/12 10:43:55;;;;;;;7.75;3.85;;;;;;;31.32;37.74;98070.30;1738127;81;20937;-66
2021/07/12 10:46:31;;;;;;;4.72;3.87;;;;;;;31.22;36.85;98078.80;1748203;82;21105;-58
2021/07/12 10:49:00;;;;;;;4.28;3.40;;;;;;;30.99;37.61;98080.42;1748130;82;20962;-60
2021/07/12 10:51:35;;;;;;;12.23;4.17;;;;;;;30.81;37.74;98077.14;1748082;82;20886;-60
2021/07/12 10:54:12;;;;;;;6.90;4.05;;;;;;;30.80;38.69;98076.98;1748297;82;20859;-61
2021/07/12 10:56:57;;;;;;;5.92;3.72;;;;;;;30.88;37.80;98069.31;1748390;82;21381;-65
2021/07/12 10:59:34;;;;;;;5.80;3.80;;;;;;;30.94;39.06;98066.28;1748524;82;21689;-61
2021/07/12 11:02:19;;;;;;;7.90;3.95;;;;;;;31.03;38.10;98059.00;1748325;82;21406;-65
2021/07/12 11:05:15;;;;;;;4.47;3.27;;;;;;;31.12;37.51;98050.13;1747402;82;20879;-61
2021/07/12 11:07:45;;;;;;;8.03;3.75;;;;;;;31.17;38.05;98048.85;1748107;82;20907;-60
2021/07/12 11:10:28;;;;;;;4.45;3.33;;;;;;;31.20;37.17;98045.25;1748746;82;20986;-60
2021/07/12 11:13:03;;;;;;;4.10;3.05;;;;;;;31.24;37.25;98039.03;1748274;82;20941;-61
2021/07/12 11:15:37;;;;;;;5.33;3.50;;;;;;;31.24;37.93;98035.67;1748173;82;20902;-61
2021/07/12 11:18:11;;;;;;;6.78;3.67;;;;;;;31.26;37.48;98036.61;1748469;82;20997;-62
2021/07/12 11:20:47;;;;;;;4.58;3.15;;;;;;;31.27;37.33;98023.76;1747962;81;20954;-63
2021/07/12 11:23:50;;;;;;;6.17;3.60;;;;;;;31.30;37.04;98030.43;1746429;82;20910;-60
2021/07/12 11:26:30;;;;;;;5.40;3.70;;;;;;;31.31;37.02;98027.22;1746324;82;21172;-59
2021/07/12 11:29:20;;;;;;;5.28;3.70;;;;;;;31.35;36.57;98013.33;1759277;81;21481;-63
2021/07/12 11:32:06;;;;;;;6.60;3.37;;;;;;;31.46;37.95;98019.44;1758966;81;20961;-62
2021/07/12 11:34:37;;;;;;;5.75;3.30;;;;;;;31.60;35.88;98010.23;1746430;81;20969;-61
2021/07/12 11:37:15;;;;;;;6.78;5.05;;;;;;;31.63;36.13;98009.36;1759987;81;21516;-60
2021/07/12 11:39:50;;;;;;;4.42;3.40;;;;;;;31.80;35.95;98007.41;1759893;81;21893;-64
2021/07/12 11:42:28;;;;;;;3.62;3.25;;;;;;;31.92;35.98;98005.95;1759773;81;21413;-60
2021/07/12 11:45:16;;;;;;;7.05;3.42;;;;;;;32.06;35.22;98003.66;1759959;81;20941;-61
2021/07/12 11:47:55;;;;;;;8.48;3.42;;;;;;;32.18;35.96;98004.36;1759808;81;20993;-61
2021/07/12 11:50:30;;;;;;;4.12;3.17;;;;;;;32.30;35.14;97999.52;1746535;82;21497;-63
2021/07/12 11:52:59;;;;;;;5.37;3.00;;;;;;;32.48;34.30;97999.67;1746669;82;21089;-60
2021/07/12 11:55:31;;;;;;;5.40;3.20;;;;;;;32.60;32.74;97996.23;1759602;81;21004;-60
2021/07/12 11:58:01;;;;;;;8.38;3.00;;;;;;;32.71;32.33;98005.04;1746369;82;20859;-61
2021/07/12 12:00:31;;;;;;;6.53;3.20;;;;;;;32.87;32.64;98004.99;1758987;81;21062;-61
2021/07/12 12:03:01;;;;;;;7.67;2.72;;;;;;;33.05;32.13;97999.76;1745080;82;21004;-61
2021/07/12 12:05:30;;;;;;;6.87;2.90;;;;;;;33.16;31.82;97988.37;1744813;82;21069;-61
2021/07/12 12:07:58;;;;;;;10.03;3.00;;;;;;;33.26;32.30;97990.83;1758119;81;20976;-60
2021/07/12 12:10:36;;;;;;;4.05;2.70;;;;;;;33.44;32.62;97984.16;1758198;81;21051;-63
2021/07/12 12:13:21;;;;;;;5.20;2.67;;;;;;;33.64;31.87;97979.20;1759489;81;20960;-63
2021/07/12 12:15:51;;;;;;;5.58;2.80;;;;;;;33.80;31.50;97981.72;1745267;81;21509;-64
2021/07/12 12:18:25;;;;;;;5.28;2.90;;;;;;;33.92;31.63;97978.16;1746609;82;21386;-64
2021/07/12 12:20:58;;;;;;;4.47;2.83;;;;;;;33.98;31.17;97973.59;1745694;82;21034;-63
2021/07/12 12:23:31;;;;;;;3.37;2.70;;;;;;;34.08;31.23;97975.28;1718157;83;21460;-61
2021/07/12 12:26:04;;;;;;;4.67;2.62;;;;;;;34.21;30.78;97967.69;1712660;83;20955;-59
2021/07/12 12:28:44;;;;;;;4.37;2.90;;;;;;;34.30;30.08;97960.83;1712552;83;21455;-60
2021/07/12 12:31:18;;;;;;;7.53;2.77;;;;;;;34.32;30.62;97959.77;1712514;83;21027;-60
2021/07/12 12:34:02;;;;;;;5.10;2.92;;;;;;;34.35;30.45;97947.76;1712517;83;20987;-61
2021/07/12 12:36:35;;;;;;;4.17;2.80;;;;;;;34.48;30.91;97947.12;1712654;83;20896;-62
2021/07/12 12:39:14;;;;;;;4.45;2.65;;;;;;;34.87;29.82;97940.97;1712637;83;21370;-60
2021/07/12 12:41:55;;;;;;;7.62;2.75;;;;;;;34.87;29.82;97940.97;1712601;83;20876;-59
2021/07/12 12:44:22;;;;;;;5.75;2.65;;;;;;;35.03;29.69;97941.41;1712800;83;21431;-62
2021/07/12 12:46:53;;;;;;;3.15;2.83;;;;;;;35.14;29.44;97938.23;1712468;83;20971;-63
2021/07/12 12:49:25;;;;;;;6.35;2.92;;;;;;;35.24;29.83;97931.47;1712570;83;20889;-61
2021/07/12 12:51:59;;;;;;;4.50;2.62;;;;;;;35.33;29.12;97936.48;1712512;83;21020;-61
2021/07/12 12:54:39;;;;;;;3.35;2.77;;;;;;;35.40;30.19;97927.84;1712813;83;21033;-63
2021/07/12 12:57:07;;;;;;;5.87;3.00;;;;;;;35.53;30.38;97929.97;1712136;83;21027;-60
2021/07/12 12:59:38;;;;;;;5.25;2.83;;;;;;;35.70;30.39;97924.92;1712551;83;21003;-67
2021/07/12 13:02:16;;;;;;;6.10;2.90;;;;;;;35.83;29.11;97922.79;1710671;83;20979;-61
2021/07/12 13:04:48;;;;;;;5.05;3.00;;;;;;;35.90;28.62;97921.11;1712577;83;21442;-63
2021/07/12 13:07:18;;;;;;;4.60;2.60;;;;;;;35.91;27.67;97926.85;1712921;83;20947;-62
2021/07/12 13:09:47;;;;;;;3.65;2.55;;;;;;;35.84;27.68;97924.35;1712437;83;20955;-66
2021/07/12 13:12:18;;;;;;;5.00;2.65;;;;;;;35.80;27.29;97918.16;1712370;83;20939;-64
2021/07/12 13:14:51;;;;;;;4.22;2.55;;;;;;;35.71;27.65;97919.50;1712850;83;21480;-62
2021/07/12 13:17:27;;;;;;;4.57;2.70;;;;;;;35.67;28.04;97916.09;1738863;81;20877;-63
2021/07/12 13:20:06;;;;;;;4.22;2.50;;;;;;;35.74;27.89;97911.63;1729345;81;21510;-60
2021/07/12 13:22:31;;;;;;;2.55;2.33;;;;;;;35.84;28.13;97915.22;1730539;82;21668;-59
2021/07/12 13:25:07;;;;;;;3.40;2.30;;;;;;;35.91;27.60;97910.13;1735329;82;21427;-60
2021/07/12 13:27:55;;;;;;;3.87;2.62;;;;;;;35.98;27.63;97911.27;1739074;82;20956;-62
2021/07/12 13:30:29;;;;;;;3.75;2.58;;;;;;;36.00;27.81;97911.57;1716705;83;20930;-61
2021/07/12 13:32:56;;;;;;;8.18;2.60;;;;;;;36.07;27.80;97914.67;1786682;80;21040;-64
2021/07/12 13:35:30;;;;;;;2.50;2.10;;;;;;;36.13;27.23;97917.78;1786059;80;21114;-62
2021/07/12 13:38:00;;;;;;;5.83;2.77;;;;;;;36.20;27.27;97916.09;1786440;79;20873;-62
2021/07/12 13:40:28;;;;;;;4.87;2.77;;;;;;;36.37;27.07;97910.38;1786271;80;20851;-62
2021/07/12 13:42:55;;;;;;;6.70;2.58;;;;;;;36.34;26.63;97912.69;1786251;79;21447;-64
2021/07/12 13:45:22;;;;;;;4.37;2.40;;;;;;;36.22;27.38;97913.63;1778577;80;20944;-61
